Time;durP1;ratioP1;P1;durP2;ratioP2;P2;SDS_P1;SDS_P2;PMS_P1;PMS_P2;Temp;Humidity;BMP_temperature;BMP_pressure;BME280_temperature;BME280_humidity;BME280_pressure;Samples;Min_cycle;Max_cycle;Signal;HPM_P1;HPM_P2
2023/04/04 00:02:17;;;;;;;2.53;2.20;;;8.40;99.90;;;;;;5110154;28;20240;-77
2023/04/04 00:04:44;;;;;;;2.57;2.23;;;8.40;99.90;;;;;;5110773;28;20197;-83
2023/04/04 00:07:11;;;;;;;2.70;2.27;;;8.40;99.90;;;;;;5110267;28;20232;-82
2023/04/04 00:09:37;;;;;;;2.53;1.80;;;8.30;99.90;;;;;;5110677;28;20209;-82
2023/04/04 00:12:06;;;;;;;1.97;1.60;;;8.30;99.90;;;;;;5112177;28;20653;-83
2023/04/04 00:14:33;;;;;;;2.20;1.97;;;8.20;99.90;;;;;;5117595;28;20236;-82
2023/04/04 00:17:00;;;;;;;2.57;2.20;;;8.10;99.90;;;;;;5114152;28;20258;-82
2023/04/04 00:19:27;;;;;;;4.83;2.00;;;7.90;99.90;;;;;;5114075;28;20241;-78
2023/04/04 00:21:54;;;;;;;2.63;2.23;;;7.90;99.90;;;;;;5114524;28;20232;-83
2023/04/04 00:24:20;;;;;;;1.90;1.53;;;7.90;99.90;;;;;;5113902;28;20204;-81
2023/04/04 00:26:47;;;;;;;3.03;2.23;;;7.90;99.90;;;;;;5114271;28;20250;-80
2023/04/04 00:29:16;;;;;;;2.27;2.07;;;7.90;99.90;;;;;;5114012;28;20236;-81
2023/04/04 00:31:43;;;;;;;2.90;1.67;;;7.80;99.90;;;;;;5113921;28;20239;-80
2023/04/04 00:34:10;;;;;;;3.97;2.03;;;7.90;99.90;;;;;;5113678;28;20235;-80
2023/04/04 00:36:37;;;;;;;2.37;2.00;;;7.60;99.90;;;;;;5114091;28;20200;-80
2023/04/04 00:39:04;;;;;;;2.93;2.03;;;7.70;99.90;;;;;;5114144;28;20225;-78
2023/04/04 00:41:31;;;;;;;2.30;1.90;;;7.60;99.90;;;;;;5114104;28;20250;-78
2023/04/04 00:43:58;;;;;;;1.80;1.67;;;7.60;99.90;;;;;;5114381;28;20284;-78
2023/04/04 00:46:28;;;;;;;2.90;1.80;;;7.60;99.90;;;;;;5115365;28;20293;-85
2023/04/04 00:48:55;;;;;;;8.57;2.27;;;7.60;99.90;;;;;;5115740;28;20283;-89
2023/04/04 00:51:22;;;;;;;2.10;1.50;;;7.60;99.90;;;;;;5114584;28;20325;-83
2023/04/04 00:53:51;;;;;;;2.20;1.83;;;7.50;99.90;;;;;;5114399;28;20687;-87
2023/04/04 00:56:19;;;;;;;2.73;2.00;;;7.50;99.90;;;;;;5114200;28;20635;-87
2023/04/04 00:58:47;;;;;;;2.87;1.87;;;7.40;99.90;;;;;;5114573;28;20288;-88
2023/04/04 01:01:14;;;;;;;3.53;2.23;;;7.40;99.90;;;;;;5113406;28;20617;-79
2023/04/04 01:03:43;;;;;;;2.47;1.93;;;7.30;99.90;;;;;;5113697;28;20200;-79
2023/04/04 01:06:10;;;;;;;2.43;2.00;;;7.20;99.90;;;;;;5113448;28;20212;-79
2023/04/04 01:08:38;;;;;;;2.60;2.20;;;7.20;99.90;;;;;;5113326;28;20232;-78
2023/04/04 01:11:06;;;;;;;3.33;2.17;;;7.20;99.90;;;;;;5113384;28;20264;-78
2023/04/04 01:13:33;;;;;;;2.80;2.57;;;7.10;99.90;;;;;;5113372;28;20201;-76
2023/04/04 01:16:00;;;;;;;3.10;2.37;;;7.10;99.90;;;;;;5113098;28;20289;-76
2023/04/04 01:18:28;;;;;;;2.93;1.80;;;7.00;99.90;;;;;;5113850;28;20239;-80
2023/04/04 01:21:01;;;;;;;2.73;2.13;;;7.10;99.90;;;;;;5113841;28;20204;-81
2023/04/04 01:23:36;;;;;;;2.27;1.93;;;7.10;99.90;;;;;;5112621;28;20216;-78
2023/04/04 01:26:06;;;;;;;2.33;2.03;;;7.00;99.90;;;;;;5112536;28;20678;-76
2023/04/04 01:28:33;;;;;;;2.37;2.17;;;7.00;99.90;;;;;;5112951;28;20611;-76
2023/04/04 01:31:02;;;;;;;3.20;1.97;;;6.90;99.90;;;;;;5113191;28;20259;-79
2023/04/04 01:33:35;;;;;;;2.67;2.30;;;6.90;99.90;;;;;;5112994;28;20196;-79
2023/04/04 01:36:10;;;;;;;1.87;1.57;;;6.90;99.90;;;;;;5113148;28;20201;-78
2023/04/04 01:38:46;;;;;;;2.30;1.63;;;6.90;99.90;;;;;;5112947;28;20250;-78
2023/04/04 01:41:15;;;;;;;2.50;2.20;;;6.90;99.90;;;;;;5112590;28;20200;-78
2023/04/04 01:43:45;;;;;;;3.33;2.03;;;6.90;99.90;;;;;;5112430;28;20201;-78
2023/04/04 01:46:12;;;;;;;3.90;2.20;;;7.00;99.90;;;;;;5112263;28;20664;-79
2023/04/04 01:48:39;;;;;;;2.53;2.17;;;6.90;99.90;;;;;;5112632;28;20698;-78
2023/04/04 01:51:07;;;;;;;2.47;2.27;;;6.90;99.90;;;;;;5112128;28;20264;-79
2023/04/04 01:53:35;;;;;;;2.13;1.67;;;6.80;99.90;;;;;;5112455;28;20603;-79
2023/04/04 01:56:02;;;;;;;2.50;2.30;;;6.70;99.90;;;;;;5112723;28;20656;-79
2023/04/04 01:58:31;;;;;;;2.23;1.70;;;6.70;99.90;;;;;;5112395;28;20197;-79
2023/04/04 02:00:58;;;;;;;1.97;1.73;;;6.70;99.90;;;;;;5113291;28;20583;-79
2023/04/04 02:03:24;;;;;;;3.07;2.07;;;6.70;99.90;;;;;;5112137;28;20628;-81
2023/04/04 02:05:52;;;;;;;2.23;1.87;;;6.60;99.90;;;;;;5112524;28;20837;-80
2023/04/04 02:08:19;;;;;;;4.73;2.40;;;6.60;99.90;;;;;;5111589;28;20664;-81
2023/04/04 02:10:46;;;;;;;5.27;2.10;;;6.50;99.90;;;;;;5112315;28;20236;-81
2023/04/04 02:13:13;;;;;;;2.07;1.70;;;6.50;99.90;;;;;;5111450;28;20699;-81
2023/04/04 02:15:42;;;;;;;1.93;1.70;;;6.50;99.90;;;;;;5112356;28;20235;-80
2023/04/04 02:18:09;;;;;;;2.00;1.80;;;6.50;99.90;;;;;;5113209;28;20287;-81
2023/04/04 02:20:35;;;;;;;2.23;1.67;;;6.50;99.90;;;;;;5112689;28;20265;-82
2023/04/04 02:23:02;;;;;;;2.13;1.67;;;6.50;99.90;;;;;;5112390;28;20243;-78
2023/04/04 02:25:29;;;;;;;1.93;1.73;;;6.50;99.90;;;;;;5112018;28;20262;-81
2023/04/04 02:27:56;;;;;;;2.57;1.80;;;6.50;99.90;;;;;;5111939;28;20243;-80
2023/04/04 02:30:23;;;;;;;2.13;1.60;;;6.50;99.90;;;;;;5111528;28;20247;-84
2023/04/04 02:32:51;;;;;;;2.63;2.43;;;6.40;99.90;;;;;;5112045;28;20232;-82
2023/04/04 02:35:18;;;;;;;2.27;1.90;;;6.40;99.90;;;;;;5111571;28;20197;-83
2023/04/04 02:37:47;;;;;;;2.90;1.30;;;6.40;99.90;;;;;;5112083;28;20201;-83
2023/04/04 02:40:14;;;;;;;1.67;1.40;;;6.40;99.90;;;;;;5111749;28;20211;-79
2023/04/04 02:42:44;;;;;;;2.00;1.57;;;6.50;99.90;;;;;;5111541;28;20381;-82
2023/04/04 02:45:13;;;;;;;2.57;2.07;;;6.40;99.90;;;;;;5111317;28;20243;-82
2023/04/04 02:47:41;;;;;;;3.43;1.73;;;6.40;99.90;;;;;;5112821;28;20204;-82
2023/04/04 02:50:10;;;;;;;2.67;2.47;;;6.40;99.90;;;;;;5116475;28;20208;-84
2023/04/04 02:52:37;;;;;;;1.83;1.40;;;6.10;99.90;;;;;;5113391;28;20235;-85
2023/04/04 02:55:06;;;;;;;1.87;1.47;;;6.00;99.90;;;;;;5112709;28;20197;-85
2023/04/04 02:57:33;;;;;;;1.70;1.60;;;6.00;99.90;;;;;;5112536;28;20232;-86
2023/04/04 03:00:00;;;;;;;1.93;1.73;;;6.00;99.90;;;;;;5112399;28;20201;-86
2023/04/04 03:02:27;;;;;;;2.20;1.67;;;6.00;99.90;;;;;;5111696;28;20215;-80
2023/04/04 03:04:54;;;;;;;1.77;1.50;;;6.00;99.90;;;;;;5111656;28;20243;-80
2023/04/04 03:07:22;;;;;;;2.50;1.53;;;5.90;99.90;;;;;;5110869;28;20200;-81
2023/04/04 03:09:49;;;;;;;2.57;1.20;;;6.00;99.90;;;;;;5111594;28;20566;-83
2023/04/04 03:12:19;;;;;;;2.43;1.67;;;6.00;99.90;;;;;;5110761;28;20746;-81
2023/04/04 03:14:46;;;;;;;2.70;1.43;;;6.00;99.90;;;;;;5111549;28;20224;-82
2023/04/04 03:17:14;;;;;;;2.20;1.57;;;6.00;99.90;;;;;;5111395;28;20205;-82
2023/04/04 03:19:41;;;;;;;2.00;1.80;;;5.90;99.90;;;;;;5112065;28;20232;-81
2023/04/04 03:22:08;;;;;;;1.77;1.30;;;5.80;99.90;;;;;;5111658;28;20261;-79
2023/04/04 03:24:36;;;;;;;1.63;1.33;;;5.80;99.90;;;;;;5111266;28;20228;-79
2023/04/04 03:27:03;;;;;;;2.50;1.80;;;5.80;99.90;;;;;;5111201;28;20289;-77
2023/04/04 03:29:31;;;;;;;2.77;1.67;;;5.70;99.90;;;;;;5111240;28;20683;-78
2023/04/04 03:31:58;;;;;;;1.60;1.40;;;5.70;99.90;;;;;;5111339;28;20236;-78
2023/04/04 03:34:26;;;;;;;1.87;1.60;;;5.70;99.90;;;;;;5111059;28;20228;-78
2023/04/04 03:36:53;;;;;;;1.50;1.27;;;5.70;99.90;;;;;;5111240;28;20197;-82
2023/04/04 03:39:20;;;;;;;2.83;1.83;;;5.70;99.90;;;;;;5110810;28;20231;-80
2023/04/04 03:41:48;;;;;;;2.40;1.93;;;5.70;99.90;;;;;;5111249;28;20231;-82
2023/04/04 03:44:15;;;;;;;1.80;1.57;;;5.80;99.90;;;;;;5110538;28;20668;-81
2023/04/04 03:46:42;;;;;;;2.40;2.20;;;5.70;99.90;;;;;;5111298;28;20201;-82
2023/04/04 03:49:09;;;;;;;1.80;1.40;;;5.60;99.90;;;;;;5114405;28;20636;-81
2023/04/04 03:51:36;;;;;;;2.03;1.80;;;5.80;99.90;;;;;;5115002;28;20260;-82
2023/04/04 03:54:03;;;;;;;1.77;1.60;;;5.70;99.90;;;;;;5115173;28;20204;-79
2023/04/04 03:56:31;;;;;;;1.47;1.37;;;5.70;99.90;;;;;;5114590;28;20290;-81
2023/04/04 03:59:00;;;;;;;2.87;2.13;;;5.70;99.90;;;;;;5115347;28;20215;-83
2023/04/04 04:01:26;;;;;;;2.87;1.97;;;5.60;99.90;;;;;;5114981;28;20236;-84
2023/04/04 04:03:54;;;;;;;2.00;1.83;;;5.70;99.90;;;;;;5115661;28;20248;-84
2023/04/04 04:06:21;;;;;;;2.33;1.67;;;5.70;99.90;;;;;;5115061;28;20288;-84
2023/04/04 04:08:48;;;;;;;2.53;1.70;;;5.60;99.90;;;;;;5115202;28;20201;-80
2023/04/04 04:11:15;;;;;;;6.13;2.53;;;5.60;99.90;;;;;;5114012;28;20587;-80
2023/04/04 04:13:42;;;;;;;2.67;2.17;;;5.70;99.90;;;;;;5114645;28;20715;-79
2023/04/04 04:16:10;;;;;;;4.90;1.80;;;5.60;99.90;;;;;;5114692;28;20261;-86
2023/04/04 04:18:38;;;;;;;2.77;1.60;;;5.60;99.90;;;;;;5115614;28;20204;-90
2023/04/04 04:21:05;;;;;;;2.00;1.80;;;5.50;99.90;;;;;;5115379;28;20200;-85
2023/04/04 04:23:32;;;;;;;2.13;1.93;;;5.60;99.90;;;;;;5114957;28;20245;-78
2023/04/04 04:25:59;;;;;;;1.90;1.73;;;5.60;99.90;;;;;;5115052;28;20247;-83
2023/04/04 04:28:26;;;;;;;3.30;2.10;;;5.50;99.90;;;;;;5114858;28;20211;-85
2023/04/04 04:30:53;;;;;;;2.47;1.90;;;5.40;99.90;;;;;;5114446;28;20217;-82
2023/04/04 04:33:28;;;;;;;2.30;2.00;;;5.50;99.90;;;;;;5113804;28;20272;-81
2023/04/04 04:35:58;;;;;;;2.30;1.43;;;5.50;99.90;;;;;;5114283;28;20257;-80
2023/04/04 04:38:26;;;;;;;1.80;1.70;;;5.40;99.90;;;;;;5113610;28;20575;-82
2023/04/04 04:40:53;;;;;;;2.40;2.13;;;5.60;99.90;;;;;;5114478;28;20335;-82
2023/04/04 04:43:19;;;;;;;3.90;2.30;;;5.60;99.90;;;;;;5113444;28;20290;-80
2023/04/04 04:45:47;;;;;;;5.43;3.03;;;5.50;99.90;;;;;;5113927;28;20288;-79
2023/04/04 04:48:15;;;;;;;2.53;2.33;;;5.30;99.90;;;;;;5111069;27;20228;-80
2023/04/04 04:50:44;;;;;;;2.53;2.07;;;5.40;99.90;;;;;;5113232;28;20201;-81
2023/04/04 04:53:12;;;;;;;4.00;2.53;;;5.40;99.90;;;;;;5112778;28;20311;-78
2023/04/04 04:55:39;;;;;;;2.63;2.37;;;5.20;99.90;;;;;;5113225;28;20209;-79
2023/04/04 04:58:06;;;;;;;2.90;2.20;;;5.10;99.90;;;;;;5113258;28;20237;-78
2023/04/04 05:00:33;;;;;;;2.47;1.90;;;5.00;99.90;;;;;;5113659;28;20205;-81
2023/04/04 05:03:00;;;;;;;2.67;2.13;;;5.10;99.90;;;;;;5113614;28;20237;-80
2023/04/04 05:05:27;;;;;;;4.00;3.27;;;5.00;99.90;;;;;;5113229;28;20207;-81
2023/04/04 05:07:55;;;;;;;2.33;2.00;;;5.00;99.90;;;;;;5113512;28;20232;-81
2023/04/04 05:10:22;;;;;;;2.17;1.77;;;4.90;99.90;;;;;;5112956;28;20212;-81
2023/04/04 05:12:49;;;;;;;4.03;2.63;;;5.00;99.90;;;;;;5113287;28;20278;-81
2023/04/04 05:15:16;;;;;;;2.90;2.40;;;5.10;99.90;;;;;;5113075;28;20254;-79
2023/04/04 05:17:43;;;;;;;2.83;1.97;;;5.10;99.90;;;;;;5113154;28;20676;-79
2023/04/04 05:20:11;;;;;;;2.47;2.23;;;5.10;99.90;;;;;;5112855;28;20208;-81
2023/04/04 05:22:43;;;;;;;2.77;2.50;;;5.20;99.90;;;;;;5112862;28;20288;-78
2023/04/04 05:25:12;;;;;;;3.33;2.57;;;5.10;99.90;;;;;;5112733;28;20268;-76
2023/04/04 05:27:39;;;;;;;2.73;2.20;;;5.00;99.90;;;;;;5113105;28;20213;-81
2023/04/04 05:30:08;;;;;;;2.60;2.40;;;4.90;99.90;;;;;;5112753;28;20235;-77
2023/04/04 05:32:35;;;;;;;3.07;2.07;;;5.40;99.90;;;;;;5113120;28;20258;-77
2023/04/04 05:35:02;;;;;;;4.90;2.67;;;5.30;99.90;;;;;;5113309;28;20696;-78
2023/04/04 05:37:28;;;;;;;3.27;2.30;;;5.20;99.90;;;;;;5112941;28;20258;-80
2023/04/04 05:39:56;;;;;;;4.00;2.37;;;5.30;99.90;;;;;;5112823;28;20240;-79
2023/04/04 05:42:24;;;;;;;3.90;2.50;;;5.30;99.90;;;;;;5112589;28;20612;-79
2023/04/04 05:44:51;;;;;;;3.53;2.77;;;5.20;99.90;;;;;;5112697;28;20228;-79
2023/04/04 05:47:20;;;;;;;3.87;2.97;;;5.10;99.90;;;;;;5112615;28;20288;-79
2023/04/04 05:49:47;;;;;;;3.77;2.60;;;5.10;99.90;;;;;;5112346;28;20572;-76
2023/04/04 05:52:15;;;;;;;3.87;3.47;;;5.20;99.90;;;;;;5112200;28;20277;-76
2023/04/04 05:54:42;;;;;;;4.30;3.70;;;5.10;99.90;;;;;;5112541;28;20272;-79
2023/04/04 05:57:09;;;;;;;4.50;3.47;;;5.20;99.90;;;;;;5111974;28;20250;-80
2023/04/04 05:59:37;;;;;;;4.40;2.60;;;5.20;99.90;;;;;;5112341;28;20236;-79
2023/04/04 06:02:06;;;;;;;5.10;2.90;;;5.10;99.90;;;;;;5111160;28;20722;-81
2023/04/04 06:04:33;;;;;;;6.50;3.23;;;4.90;99.90;;;;;;5111224;28;20237;-78
2023/04/04 06:07:00;;;;;;;4.70;3.10;;;5.00;99.90;;;;;;5110651;28;20240;-76
2023/04/04 06:09:27;;;;;;;4.17;3.23;;;5.10;99.90;;;;;;5111704;28;20221;-76
2023/04/04 06:11:55;;;;;;;5.57;3.80;;;5.20;99.90;;;;;;5111371;27;20282;-77
2023/04/04 06:14:22;;;;;;;5.47;3.93;;;5.20;99.90;;;;;;5110833;28;20672;-81
2023/04/04 06:16:50;;;;;;;4.20;3.50;;;5.40;99.90;;;;;;5110384;27;20631;-80
2023/04/04 06:19:17;;;;;;;6.70;5.17;;;5.10;99.90;;;;;;5111709;28;20680;-79
2023/04/04 06:21:44;;;;;;;8.63;4.37;;;5.10;99.90;;;;;;5111801;28;20251;-78
2023/04/04 06:24:11;;;;;;;5.50;4.37;;;5.10;99.90;;;;;;5110933;28;20216;-78
2023/04/04 06:26:38;;;;;;;5.43;4.20;;;5.30;99.90;;;;;;5111876;28;20225;-77
2023/04/04 06:29:05;;;;;;;4.47;2.93;;;5.30;99.90;;;;;;5111832;28;20208;-81
2023/04/04 06:31:31;;;;;;;4.67;2.70;;;5.30;99.90;;;;;;5112471;28;20629;-77
2023/04/04 06:34:01;;;;;;;9.20;4.07;;;5.30;99.90;;;;;;5111460;28;20324;-71
2023/04/04 06:36:28;;;;;;;5.40;3.70;;;5.20;99.90;;;;;;5110347;28;20281;-72
2023/04/04 06:38:55;;;;;;;6.43;5.67;;;5.20;99.90;;;;;;5111477;28;20231;-75
2023/04/04 06:41:22;;;;;;;10.00;7.73;;;5.40;99.90;;;;;;5110879;28;20236;-75
2023/04/04 06:43:49;;;;;;;8.17;6.07;;;5.50;99.90;;;;;;5111555;28;20213;-76
2023/04/04 06:46:16;;;;;;;6.47;4.70;;;5.50;99.90;;;;;;5111014;28;20633;-76
2023/04/04 06:48:43;;;;;;;12.27;7.57;;;5.50;99.90;;;;;;5111196;28;20208;-76
2023/04/04 06:51:12;;;;;;;8.23;5.93;;;5.50;99.90;;;;;;5110561;28;20332;-75
2023/04/04 06:53:39;;;;;;;7.90;5.17;;;5.60;99.90;;;;;;5110692;28;20260;-75
2023/04/04 06:56:06;;;;;;;4.23;3.37;;;5.70;99.90;;;;;;5110089;28;20273;-74
2023/04/04 06:58:33;;;;;;;3.63;3.30;;;5.80;99.90;;;;;;5111323;28;20664;-75
2023/04/04 07:01:01;;;;;;;5.93;5.33;;;5.90;99.90;;;;;;5111322;28;20232;-75
2023/04/04 07:03:29;;;;;;;9.73;5.17;;;6.00;99.90;;;;;;5110570;28;20682;-76
2023/04/04 07:05:56;;;;;;;9.40;4.00;;;6.00;99.90;;;;;;5111144;28;20646;-76
2023/04/04 07:08:24;;;;;;;4.27;2.97;;;6.10;99.90;;;;;;5111173;28;20247;-75
2023/04/04 07:10:51;;;;;;;3.93;3.10;;;6.20;99.90;;;;;;5111289;28;20300;-75
2023/04/04 07:13:18;;;;;;;4.63;3.70;;;6.30;99.90;;;;;;5110827;28;20268;-75
2023/04/04 07:15:47;;;;;;;3.17;2.70;;;6.40;99.90;;;;;;5111528;28;20231;-76
2023/04/04 07:18:14;;;;;;;3.63;2.53;;;6.40;99.90;;;;;;5110632;28;20197;-76
2023/04/04 07:20:42;;;;;;;3.10;2.67;;;6.50;99.90;;;;;;5111256;28;20236;-75
2023/04/04 07:23:09;;;;;;;3.50;2.50;;;6.50;99.90;;;;;;5113080;28;20265;-76
2023/04/04 07:25:38;;;;;;;3.83;2.43;;;6.60;99.90;;;;;;5115486;28;20203;-75
2023/04/04 07:28:05;;;;;;;3.50;2.63;;;6.60;99.90;;;;;;5115527;28;20232;-74
2023/04/04 07:30:32;;;;;;;3.80;2.83;;;6.50;99.90;;;;;;5115724;28;20235;-75
2023/04/04 07:33:00;;;;;;;4.07;2.57;;;6.60;99.90;;;;;;5114983;28;20232;-76
2023/04/04 07:35:27;;;;;;;4.13;3.00;;;6.90;99.90;;;;;;5114853;28;20304;-75
2023/04/04 07:37:54;;;;;;;3.30;3.00;;;7.00;99.90;;;;;;5115171;28;20212;-76
2023/04/04 07:40:21;;;;;;;3.07;2.77;;;7.40;99.90;;;;;;5114610;28;20672;-75
2023/04/04 07:42:50;;;;;;;3.20;2.90;;;8.00;99.90;;;;;;5115210;28;20679;-77
2023/04/04 07:45:17;;;;;;;4.77;3.53;;;7.90;99.90;;;;;;5114676;28;20224;-75
2023/04/04 07:47:45;;;;;;;3.43;2.50;;;7.50;99.90;;;;;;5114727;28;20297;-77
2023/04/04 07:50:12;;;;;;;2.67;1.77;;;7.40;99.90;;;;;;5113792;28;20240;-75
2023/04/04 07:52:39;;;;;;;2.20;1.73;;;7.30;99.90;;;;;;5115021;28;20247;-76
2023/04/04 07:55:07;;;;;;;4.23;2.27;;;7.30;99.90;;;;;;5114677;28;20201;-76
2023/04/04 07:57:36;;;;;;;3.47;3.10;;;7.30;99.90;;;;;;5115032;28;20236;-74
2023/04/04 08:00:08;;;;;;;2.70;2.40;;;7.40;99.90;;;;;;5114364;28;20244;-75
2023/04/04 08:02:35;;;;;;;3.17;2.47;;;7.50;99.90;;;;;;5114520;28;20204;-75
2023/04/04 08:05:02;;;;;;;4.13;2.27;;;7.70;99.90;;;;;;5114871;28;20630;-75
2023/04/04 08:07:29;;;;;;;2.70;2.50;;;7.80;99.90;;;;;;5114628;28;20201;-75
2023/04/04 08:09:56;;;;;;;5.83;2.70;;;7.70;99.90;;;;;;5114644;28;20265;-75
2023/04/04 08:12:23;;;;;;;3.07;1.87;;;7.90;99.90;;;;;;5114036;28;21054;-74
2023/04/04 08:14:50;;;;;;;2.60;2.40;;;8.20;99.90;;;;;;5114245;28;20232;-74
2023/04/04 08:17:19;;;;;;;2.73;2.50;;;8.20;99.90;;;;;;5114301;28;20254;-75
2023/04/04 08:19:46;;;;;;;3.00;2.50;;;8.20;99.90;;;;;;5114249;28;20211;-74
2023/04/04 08:22:13;;;;;;;6.00;3.33;;;8.60;99.90;;;;;;5113910;28;20695;-78
2023/04/04 08:24:40;;;;;;;3.67;2.20;;;8.70;99.90;;;;;;5114270;28;20200;-76
2023/04/04 08:27:07;;;;;;;2.03;1.83;;;8.80;99.90;;;;;;5113683;28;20208;-75
2023/04/04 08:29:34;;;;;;;2.03;1.93;;;8.80;99.90;;;;;;5114172;28;20282;-75
2023/04/04 08:32:01;;;;;;;2.43;1.90;;;10.70;99.90;;;;;;5114564;28;20209;-75
2023/04/04 08:34:29;;;;;;;2.17;1.73;;;11.30;99.90;;;;;;5113432;28;20228;-75
2023/04/04 08:36:56;;;;;;;2.30;2.00;;;10.20;99.90;;;;;;5113971;28;20232;-75
2023/04/04 08:39:23;;;;;;;2.10;1.90;;;9.70;99.90;;;;;;5113673;28;20224;-76
2023/04/04 08:41:56;;;;;;;2.10;1.57;;;9.60;99.90;;;;;;5113971;28;20322;-75
2023/04/04 08:44:26;;;;;;;3.43;2.23;;;9.60;99.90;;;;;;5113171;28;20702;-75
2023/04/04 08:46:55;;;;;;;2.77;2.33;;;9.70;99.90;;;;;;5113973;28;20250;-75
2023/04/04 08:49:23;;;;;;;3.37;1.93;;;9.40;99.90;;;;;;5113481;28;20209;-74
2023/04/04 08:51:52;;;;;;;2.73;2.23;;;9.40;99.90;;;;;;5113770;28;20729;-75
2023/04/04 08:54:21;;;;;;;1.70;1.53;;;10.00;99.90;;;;;;5113230;28;20268;-75
2023/04/04 08:56:48;;;;;;;4.67;2.27;;;9.90;99.90;;;;;;5113613;28;20240;-76
2023/04/04 08:59:17;;;;;;;2.30;2.10;;;10.10;99.90;;;;;;5112979;28;20683;-75
2023/04/04 09:01:44;;;;;;;1.87;1.73;;;10.60;99.90;;;;;;5113566;28;20258;-75
2023/04/04 09:04:11;;;;;;;2.50;1.87;;;10.40;99.90;;;;;;5113214;28;20244;-75
2023/04/04 09:06:38;;;;;;;2.00;1.87;;;10.30;99.90;;;;;;5113496;28;20205;-75
2023/04/04 09:09:07;;;;;;;2.73;2.23;;;10.30;99.90;;;;;;5113410;28;20244;-75
2023/04/04 09:11:36;;;;;;;2.87;2.20;;;10.40;99.90;;;;;;5113096;28;20240;-77
2023/04/04 09:14:04;;;;;;;1.93;1.47;;;10.80;99.90;;;;;;5112729;28;20264;-75
2023/04/04 09:16:31;;;;;;;2.00;1.60;;;12.40;99.90;;;;;;5113781;28;20211;-76
2023/04/04 09:18:58;;;;;;;1.45;1.00;;;13.20;99.90;;;;;;5113674;28;20234;-76
2023/04/04 09:21:25;;;;;;;3.88;1.10;;;12.60;99.90;;;;;;5112823;28;20232;-76
2023/04/04 09:23:59;;;;;;;2.63;1.50;;;12.00;99.90;;;;;;5113331;28;20287;-76
2023/04/04 09:26:28;;;;;;;1.45;1.35;;;11.80;99.90;;;;;;5112880;28;20225;-77
2023/04/04 09:28:55;;;;;;;1.45;1.35;;;11.40;99.90;;;;;;5113032;28;20228;-75
2023/04/04 09:31:24;;;;;;;1.58;1.48;;;11.40;99.90;;;;;;5112630;28;20243;-79
2023/04/04 09:33:51;;;;;;;2.38;1.77;;;11.70;99.90;;;;;;5112799;28;20268;-75
2023/04/04 09:36:18;;;;;;;1.70;1.60;;;12.70;99.90;;;;;;5112652;28;20228;-78
2023/04/04 09:38:47;;;;;;;1.63;1.42;;;13.30;99.90;;;;;;5113099;28;20197;-76
2023/04/04 09:41:15;;;;;;;1.88;1.67;;;13.40;99.90;;;;;;5112404;28;20197;-75
2023/04/04 09:43:45;;;;;;;1.17;1.13;;;13.20;99.90;;;;;;5112528;28;20243;-77
2023/04/04 09:46:12;;;;;;;1.73;1.52;;;13.10;99.90;;;;;;5111353;28;20205;-75
2023/04/04 09:48:40;;;;;;;2.05;1.40;;;14.00;99.90;;;;;;5112491;28;20201;-76
2023/04/04 09:51:07;;;;;;;1.60;1.50;;;13.80;99.90;;;;;;5111651;28;20204;-75
2023/04/04 09:53:36;;;;;;;2.08;1.50;;;12.50;99.90;;;;;;5112481;28;20267;-76
2023/04/04 09:56:03;;;;;;;2.35;2.15;;;12.30;99.90;;;;;;5112309;28;20201;-75
2023/04/04 09:58:34;;;;;;;1.40;1.30;;;13.10;99.90;;;;;;5112607;28;20232;-79
2023/04/04 10:01:09;;;;;;;1.33;1.20;;;14.80;99.90;;;;;;5112477;28;20303;-79
2023/04/04 10:03:38;;;;;;;2.22;1.95;;;15.40;99.90;;;;;;5112311;28;20207;-77
2023/04/04 10:06:05;;;;;;;1.63;1.50;;;14.60;99.90;;;;;;5111286;28;20197;-79
2023/04/04 10:08:34;;;;;;;1.63;1.20;;;14.40;99.90;;;;;;5111498;27;20302;-78
2023/04/04 10:11:02;;;;;;;1.77;1.50;;;14.10;99.90;;;;;;5112286;28;20210;-74
2023/04/04 10:13:30;;;;;;;1.73;1.40;;;13.50;99.90;;;;;;5100025;28;20220;-76
2023/04/04 10:15:59;;;;;;;2.75;1.77;;;16.00;99.90;;;;;;5112300;28;20200;-73
2023/04/04 10:18:29;;;;;;;1.50;1.10;;;17.10;99.90;;;;;;5111495;28;20248;-74
2023/04/04 10:20:57;;;;;;;1.92;1.73;;;16.10;99.90;;;;;;5111772;28;20631;-75
2023/04/04 10:23:26;;;;;;;1.63;1.52;;;16.40;99.90;;;;;;5111625;28;20240;-75
2023/04/04 10:25:53;;;;;;;1.40;1.30;;;16.40;99.90;;;;;;5111374;28;20215;-74
2023/04/04 10:28:21;;;;;;;1.92;1.75;;;16.40;99.90;;;;;;5111505;28;20236;-74
2023/04/04 10:30:52;;;;;;;1.45;1.35;;;16.40;99.90;;;;;;5112113;28;20287;-74
2023/04/04 10:33:27;;;;;;;2.13;1.83;;;14.40;99.90;;;;;;5110901;28;20201;-75
2023/04/04 10:36:02;;;;;;;2.60;1.60;;;13.30;99.90;;;;;;5111564;28;20222;-75
2023/04/04 10:38:31;;;;;;;2.92;1.70;;;12.90;99.90;;;;;;5111327;28;20251;-73
2023/04/04 10:41:00;;;;;;;1.98;1.80;;;12.50;99.90;;;;;;5111405;28;20236;-72
2023/04/04 10:43:32;;;;;;;3.17;2.05;;;12.40;99.90;;;;;;5111344;28;20208;-73
2023/04/04 10:46:11;;;;;;;2.13;1.90;;;12.40;99.90;;;;;;5112034;28;20201;-73
2023/04/04 10:48:38;;;;;;;1.95;1.52;;;12.30;99.90;;;;;;5111360;28;20216;-73
2023/04/04 10:51:07;;;;;;;2.20;1.70;;;12.60;99.90;;;;;;5111432;28;20258;-72
2023/04/04 10:53:35;;;;;;;2.22;2.03;;;12.30;99.90;;;;;;5111369;28;20251;-72
2023/04/04 10:56:03;;;;;;;4.05;2.50;;;12.60;99.90;;;;;;5111430;28;20285;-72
2023/04/04 10:58:30;;;;;;;4.28;2.03;;;12.70;99.90;;;;;;5111260;28;20244;-72
2023/04/04 11:00:59;;;;;;;1.67;1.58;;;12.80;99.90;;;;;;5110853;28;20236;-73
2023/04/04 11:03:26;;;;;;;2.05;1.65;;;12.90;99.90;;;;;;5110430;28;20793;-72
2023/04/04 11:05:59;;;;;;;2.33;1.90;;;12.80;99.90;;;;;;5111532;28;20240;-72
2023/04/04 11:08:29;;;;;;;2.42;2.00;;;12.80;99.90;;;;;;5110875;28;20216;-73
2023/04/04 11:10:57;;;;;;;1.80;1.67;;;12.90;99.90;;;;;;5110845;28;20208;-73
2023/04/04 11:13:28;;;;;;;3.42;3.17;;;12.80;99.90;;;;;;5110669;28;20200;-72
2023/04/04 11:15:56;;;;;;;2.70;2.28;;;12.80;99.90;;;;;;5111108;28;20236;-73
2023/04/04 11:18:46;;;;;;;2.75;2.22;;;12.90;99.90;;;;;;5111079;28;20292;-72
2023/04/04 11:21:17;;;;;;;1.80;1.60;;;12.80;99.90;;;;;;5110887;28;20201;-72
2023/04/04 11:24:17;;;;;;;2.55;2.15;;;12.80;99.90;;;;;;5110883;28;20204;-72
2023/04/04 11:26:46;;;;;;;2.53;2.05;;;13.00;99.90;;;;;;5111346;28;20290;-72
2023/04/04 11:29:22;;;;;;;5.57;2.75;;;13.10;99.90;;;;;;5110913;28;20215;-72
2023/04/04 11:31:50;;;;;;;1.90;1.80;;;13.10;99.90;;;;;;5110904;28;20222;-72
2023/04/04 11:34:30;;;;;;;1.60;1.50;;;13.10;99.90;;;;;;5110703;28;20233;-72
2023/04/04 11:37:00;;;;;;;2.22;2.08;;;13.40;99.90;;;;;;5111129;28;20228;-72
2023/04/04 11:39:30;;;;;;;1.73;1.52;;;13.20;99.90;;;;;;5110706;28;20197;-72
2023/04/04 11:42:03;;;;;;;1.85;1.50;;;13.30;99.90;;;;;;5111130;28;20204;-72
2023/04/04 11:44:31;;;;;;;2.40;2.05;;;13.50;99.90;;;;;;5110817;28;20200;-72
2023/04/04 11:47:09;;;;;;;1.92;1.73;;;13.70;99.90;;;;;;5111242;28;20197;-73
2023/04/04 11:49:38;;;;;;;5.28;2.38;;;13.90;99.90;;;;;;5110195;28;20207;-72
2023/04/04 11:52:07;;;;;;;2.35;2.15;;;13.90;99.90;;;;;;5105676;28;20258;-71
2023/04/04 11:54:36;;;;;;;2.20;2.05;;;14.10;99.90;;;;;;5109762;28;20225;-73
2023/04/04 11:57:05;;;;;;;4.03;2.42;;;13.80;99.90;;;;;;5107407;28;20240;-73
2023/04/04 11:59:33;;;;;;;1.92;1.80;;;13.80;99.90;;;;;;5108058;28;20196;-73
2023/04/04 12:02:01;;;;;;;2.85;2.55;;;13.80;99.90;;;;;;5107249;28;20243;-72
2023/04/04 12:04:28;;;;;;;2.08;1.67;;;13.50;99.90;;;;;;5108753;28;20205;-73
2023/04/04 12:06:56;;;;;;;3.33;2.28;;;13.50;99.90;;;;;;5110536;28;20290;-72
2023/04/04 12:09:25;;;;;;;2.05;1.85;;;13.60;99.90;;;;;;5112389;28;20223;-73
2023/04/04 12:11:55;;;;;;;2.83;1.83;;;13.60;99.90;;;;;;5114558;28;20265;-73
2023/04/04 12:14:24;;;;;;;3.03;1.60;;;13.70;99.90;;;;;;5112329;27;20233;-75
2023/04/04 12:16:53;;;;;;;2.10;1.85;;;13.80;99.90;;;;;;5110824;27;20204;-73
2023/04/04 12:19:21;;;;;;;3.92;1.63;;;13.60;99.90;;;;;;5109465;27;20209;-72
2023/04/04 12:21:48;;;;;;;2.22;1.80;;;13.70;99.90;;;;;;5126352;27;20283;-72
2023/04/04 12:24:15;;;;;;;1.95;1.63;;;13.80;99.90;;;;;;5134521;27;20235;-73
2023/04/04 12:26:45;;;;;;;3.67;2.22;;;14.00;99.90;;;;;;5116604;27;20201;-73
2023/04/04 12:29:16;;;;;;;2.08;1.85;;;14.20;99.90;;;;;;5126936;27;20224;-74
2023/04/04 12:31:45;;;;;;;1.90;1.75;;;14.10;99.90;;;;;;5114972;27;20596;-73
2023/04/04 12:34:18;;;;;;;1.70;1.60;;;13.70;99.90;;;;;;5119663;27;20273;-73
2023/04/04 12:36:47;;;;;;;2.38;2.13;;;13.80;99.90;;;;;;5114776;27;20333;-72
2023/04/04 12:39:16;;;;;;;5.68;2.20;;;13.90;99.90;;;;;;5129093;27;20252;-72
2023/04/04 12:41:53;;;;;;;2.78;2.47;;;14.10;99.90;;;;;;5121849;27;20235;-72
2023/04/04 12:44:30;;;;;;;1.80;1.70;;;14.00;99.90;;;;;;5100639;27;20239;-72
2023/04/04 12:47:01;;;;;;;3.35;3.05;;;14.20;99.90;;;;;;5108808;28;20265;-74
2023/04/04 12:49:30;;;;;;;2.25;2.03;;;14.30;99.90;;;;;;5114319;27;20718;-74
2023/04/04 12:51:59;;;;;;;2.08;1.75;;;14.40;99.90;;;;;;5117717;27;20211;-75
2023/04/04 12:54:28;;;;;;;2.30;1.52;;;14.10;99.90;;;;;;5113307;28;20909;-74
2023/04/04 12:56:56;;;;;;;1.67;1.58;;;14.00;99.90;;;;;;5113786;28;20240;-73
2023/04/04 12:59:27;;;;;;;2.50;2.17;;;14.10;99.90;;;;;;5128827;27;20215;-75